Ana Sayfa
METAR-TAF:

METAR-TAF

Havaalanları :

Noatak, Alaska, Amerika Birleşik Devletleri

Enlem: 67-34N, Boylam: 162-59W, yükseklik: 27 m

Güncel hava durumu gözlemi

Rapor saat 14:56 UTC de 48 dakika önce yapıldı.
Rüzgar güney/güneydoğudan 5 kt
Sıcaklık -6°C
Nem 86%
Basınç 1017 hPa
Görüş mesafesi: 9.7 km
2100 ft yükseklikte parçalı çok bulutlu
2600 ft yükseklikte çok bulutlu
hafif kar, Pus

METAR: PAWN 021456Z AUTO 15005KT 6SM -SN BR BKN021 OVC026 M06/M08 A3003 RMK AO2 SLP183 P0000 60000 T10611078 53001 FZRANO

Saat: 07:44 (15:44 UTC)


TAF: eksik

4.000'den fazla havaalanı için hava durumu gözlemleri ve tahminleri (METAR ve TAF raporları).

Kullanılabilir istasyonlar harita üzerinde sarı ve kırmızı noktalarla gösterilir.

İstasyonun adını görmek için fareyi noktanın üzerinde gezdirin.

Sonrasında hava gözlem ve tahminlerini görmek için tıklayın.

Haritayı değiştirmek için: yaklaştırmak için siyah artı işaretli yeşil düğmeye ve uzaklaştırmak için de eksi işaretli düğmeye hızla tıklayın; bitişik haritalar için yeşil okları kullanın.


METAR-TAF: